Time;durP1;ratioP1;P1;durP2;ratioP2;P2;SDS_P1;SDS_P2;PMS_P1;PMS_P2;Temp;Humidity;BMP_temperature;BMP_pressure;BME280_temperature;BME280_humidity;BME280_pressure;Samples;Min_cycle;Max_cycle;Signal;HPM_P1;HPM_P2
2024/02/24 00:00:14;;;;;;;6.00;2.93;;;4.60;99.90;;;;;;5032978;28;20256;-58
2024/02/24 00:02:41;;;;;;;8.83;3.03;;;4.60;99.90;;;;;;5033248;28;20227;-56
2024/02/24 00:05:09;;;;;;;4.77;2.53;;;4.80;99.90;;;;;;5033166;28;20208;-57
2024/02/24 00:07:36;;;;;;;5.97;2.13;;;4.80;99.90;;;;;;5033175;28;20580;-57
2024/02/24 00:10:03;;;;;;;7.10;2.60;;;4.90;99.90;;;;;;5033196;28;20285;-58
2024/02/24 00:12:30;;;;;;;6.20;2.60;;;4.90;99.90;;;;;;5032990;28;20206;-58
2024/02/24 00:14:58;;;;;;;6.30;2.30;;;4.90;99.90;;;;;;5033126;28;20229;-57
2024/02/24 00:17:26;;;;;;;3.23;2.07;;;4.80;99.90;;;;;;5025240;28;20244;-58
2024/02/24 00:19:53;;;;;;;4.83;2.30;;;4.80;99.90;;;;;;5031925;28;20221;-59
2024/02/24 00:22:20;;;;;;;3.17;1.93;;;4.80;99.90;;;;;;5032337;28;20572;-57
2024/02/24 00:24:46;;;;;;;4.30;2.00;;;4.70;99.90;;;;;;5032833;28;20588;-58
2024/02/24 00:27:13;;;;;;;8.73;2.17;;;4.80;99.90;;;;;;5032458;28;20640;-57
2024/02/24 00:29:39;;;;;;;5.67;2.10;;;4.70;99.90;;;;;;5032762;28;20213;-56
2024/02/24 00:32:07;;;;;;;5.87;2.03;;;4.60;99.90;;;;;;5032219;28;20615;-57
2024/02/24 00:34:35;;;;;;;4.83;2.00;;;4.60;99.90;;;;;;5032767;28;20218;-57
2024/02/24 00:37:02;;;;;;;5.37;2.53;;;4.60;99.90;;;;;;5032151;28;20210;-57
2024/02/24 00:39:28;;;;;;;5.43;2.20;;;4.50;99.90;;;;;;5032381;28;20708;-58
2024/02/24 00:41:55;;;;;;;4.57;2.00;;;4.50;99.90;;;;;;5031848;28;20607;-58
2024/02/24 00:44:21;;;;;;;5.77;2.27;;;4.60;99.90;;;;;;5032318;28;20229;-57
2024/02/24 00:46:49;;;;;;;3.50;1.90;;;4.70;99.90;;;;;;5032620;28;20261;-57
2024/02/24 00:49:15;;;;;;;5.10;2.17;;;4.80;99.90;;;;;;5032164;28;20202;-57
2024/02/24 00:51:44;;;;;;;4.83;2.17;;;4.90;99.90;;;;;;5032019;28;20663;-57
2024/02/24 00:54:11;;;;;;;5.17;2.73;;;5.00;99.90;;;;;;5032304;28;20592;-57
2024/02/24 00:56:37;;;;;;;5.90;3.30;;;5.00;99.90;;;;;;5032694;28;20207;-60
2024/02/24 00:59:04;;;;;;;6.47;4.23;;;5.00;99.90;;;;;;5032158;28;20636;-57
2024/02/24 01:01:31;;;;;;;6.13;3.67;;;4.80;99.90;;;;;;5031658;28;20616;-58
2024/02/24 01:03:57;;;;;;;5.87;3.63;;;4.80;99.90;;;;;;5032197;28;20206;-58
2024/02/24 01:06:24;;;;;;;7.97;3.60;;;4.90;99.90;;;;;;5024079;28;20206;-57
2024/02/24 01:08:52;;;;;;;4.20;3.33;;;4.90;99.90;;;;;;5032113;28;20284;-57
2024/02/24 01:11:19;;;;;;;6.40;4.10;;;5.00;99.90;;;;;;5032386;28;20233;-57
2024/02/24 01:13:45;;;;;;;7.63;4.17;;;4.90;99.90;;;;;;5031961;28;20202;-58
2024/02/24 01:16:12;;;;;;;11.80;5.30;;;4.80;99.90;;;;;;5031775;28;20301;-59
2024/02/24 01:18:39;;;;;;;11.67;4.47;;;4.70;99.90;;;;;;5031788;28;20206;-57
2024/02/24 01:21:05;;;;;;;11.77;4.80;;;4.60;99.90;;;;;;5031242;28;20222;-56
2024/02/24 01:23:32;;;;;;;9.77;3.70;;;4.60;99.90;;;;;;5031887;28;20210;-57
2024/02/24 01:26:00;;;;;;;12.03;4.73;;;4.50;99.90;;;;;;5031969;28;20206;-59
2024/02/24 01:28:27;;;;;;;9.17;3.97;;;4.50;99.90;;;;;;5032307;28;20212;-56
2024/02/24 01:30:54;;;;;;;5.77;3.10;;;4.50;99.90;;;;;;5031540;28;20222;-57
2024/02/24 01:33:20;;;;;;;6.13;2.97;;;4.40;99.90;;;;;;5031818;28;20586;-57
2024/02/24 01:35:47;;;;;;;8.87;4.10;;;4.30;99.90;;;;;;5032177;28;20214;-57
2024/02/24 01:38:13;;;;;;;9.40;2.90;;;4.20;99.90;;;;;;5032349;28;20214;-57
2024/02/24 01:40:40;;;;;;;10.27;3.97;;;4.20;99.90;;;;;;5031912;28;20249;-57
2024/02/24 01:43:24;;;;;;;11.87;4.40;;;4.20;99.90;;;;;;5032208;28;20726;-56
2024/02/24 01:45:52;;;;;;;4.13;2.80;;;4.20;99.90;;;;;;5032068;28;20293;-56
2024/02/24 01:48:19;;;;;;;4.73;2.37;;;4.10;99.90;;;;;;5031857;28;20216;-57
2024/02/24 01:50:47;;;;;;;3.33;2.20;;;4.20;99.90;;;;;;5031612;28;20601;-56
2024/02/24 01:53:14;;;;;;;3.13;2.30;;;4.20;99.90;;;;;;5031684;28;20206;-60
2024/02/24 01:55:41;;;;;;;7.97;3.30;;;4.30;99.90;;;;;;5032017;28;20301;-56
2024/02/24 01:58:08;;;;;;;8.13;3.60;;;4.30;99.90;;;;;;5031732;28;20206;-59
2024/02/24 02:00:37;;;;;;;6.13;2.97;;;4.30;99.90;;;;;;5031209;28;20226;-57
2024/02/24 02:03:04;;;;;;;4.03;2.53;;;4.30;99.90;;;;;;5031501;28;20213;-57
2024/02/24 02:05:31;;;;;;;5.63;2.67;;;4.30;99.90;;;;;;5032031;28;20217;-57
2024/02/24 02:07:58;;;;;;;4.27;2.40;;;4.30;99.90;;;;;;5031977;28;20700;-57
2024/02/24 02:10:25;;;;;;;5.80;2.23;;;4.40;99.90;;;;;;5031820;28;20218;-58
2024/02/24 02:12:51;;;;;;;7.07;2.63;;;4.50;99.90;;;;;;5031264;28;20632;-57
2024/02/24 02:15:18;;;;;;;5.07;2.17;;;4.60;99.90;;;;;;5031173;28;20272;-57
2024/02/24 02:17:46;;;;;;;3.43;1.87;;;4.80;99.90;;;;;;5031666;28;20233;-58
2024/02/24 02:20:13;;;;;;;5.00;3.03;;;5.00;99.90;;;;;;5031360;28;20226;-56
2024/02/24 02:22:41;;;;;;;6.43;2.27;;;5.10;99.90;;;;;;5031442;28;20217;-56
2024/02/24 02:25:08;;;;;;;2.20;1.47;;;5.20;99.90;;;;;;5031230;28;20210;-57
2024/02/24 02:27:35;;;;;;;3.13;1.80;;;5.40;99.90;;;;;;5031158;28;20213;-57
2024/02/24 02:30:03;;;;;;;2.97;1.67;;;5.50;99.90;;;;;;5031237;28;20209;-58
2024/02/24 02:32:29;;;;;;;2.30;1.60;;;5.60;99.90;;;;;;5031069;28;20203;-56
2024/02/24 02:34:56;;;;;;;2.57;1.50;;;5.70;99.90;;;;;;5031649;28;20437;-57
2024/02/24 02:37:23;;;;;;;3.00;1.60;;;5.80;99.90;;;;;;5031711;28;20638;-56
2024/02/24 02:39:51;;;;;;;3.23;1.30;;;5.70;99.90;;;;;;5031325;28;20573;-58
2024/02/24 02:42:18;;;;;;;1.77;0.90;;;5.80;99.90;;;;;;5030805;28;20234;-57
2024/02/24 02:44:44;;;;;;;2.97;1.57;;;5.90;99.90;;;;;;5034420;28;20297;-57
2024/02/24 02:47:11;;;;;;;1.70;1.37;;;6.20;99.90;;;;;;5034522;28;20210;-58
2024/02/24 02:49:38;;;;;;;1.87;1.10;;;6.40;99.90;;;;;;5035005;28;20285;-57
2024/02/24 02:52:05;;;;;;;2.17;1.30;;;6.50;99.90;;;;;;5034156;28;20276;-58
2024/02/24 02:54:32;;;;;;;1.73;1.13;;;6.60;99.90;;;;;;5034458;28;20250;-58
2024/02/24 02:57:00;;;;;;;3.00;1.40;;;6.60;99.90;;;;;;5034737;28;20202;-57
2024/02/24 02:59:27;;;;;;;4.60;1.47;;;6.60;99.90;;;;;;5026068;28;20260;-57
2024/02/24 03:01:54;;;;;;;3.60;1.43;;;6.60;99.90;;;;;;5033932;28;20222;-56
2024/02/24 03:04:21;;;;;;;2.03;1.10;;;6.50;99.90;;;;;;5034461;28;20256;-58
2024/02/24 03:06:48;;;;;;;1.60;1.17;;;6.40;99.90;;;;;;5034473;28;20198;-57
2024/02/24 03:09:15;;;;;;;4.70;1.60;;;6.40;99.90;;;;;;5034298;28;20202;-58
2024/02/24 03:11:41;;;;;;;8.83;1.60;;;6.30;99.90;;;;;;5033967;28;20230;-57
2024/02/24 03:14:09;;;;;;;2.13;0.90;;;6.10;99.90;;;;;;5033983;28;20758;-56
2024/02/24 03:16:36;;;;;;;2.53;1.50;;;6.10;99.90;;;;;;5034044;28;20620;-57
2024/02/24 03:19:03;;;;;;;3.03;0.90;;;6.10;99.90;;;;;;5034077;28;20573;-57
2024/02/24 03:21:31;;;;;;;2.33;1.00;;;6.00;99.90;;;;;;5033710;28;20226;-56
2024/02/24 03:23:58;;;;;;;4.20;1.13;;;6.00;99.90;;;;;;5033908;28;20653;-57
2024/02/24 03:26:25;;;;;;;2.33;1.10;;;5.90;99.90;;;;;;5033881;28;20415;-57
2024/02/24 03:28:52;;;;;;;2.10;1.00;;;5.90;99.90;;;;;;5033843;28;20209;-58
2024/02/24 03:31:20;;;;;;;2.00;1.00;;;6.00;99.90;;;;;;5033460;28;20229;-58
2024/02/24 03:33:47;;;;;;;2.57;1.10;;;6.00;99.90;;;;;;5033672;28;20618;-58
2024/02/24 03:36:14;;;;;;;1.47;1.00;;;6.00;99.90;;;;;;5033688;28;20221;-58
2024/02/24 03:38:41;;;;;;;2.53;0.90;;;6.00;99.90;;;;;;5033628;28;20675;-58
2024/02/24 03:41:08;;;;;;;1.20;0.90;;;6.10;99.90;;;;;;5033050;28;20529;-57
2024/02/24 03:43:35;;;;;;;3.00;1.60;;;6.30;99.90;;;;;;5033467;28;20686;-58
2024/02/24 03:46:02;;;;;;;1.40;0.90;;;6.40;99.90;;;;;;5033731;28;20206;-57
2024/02/24 03:48:30;;;;;;;2.73;1.03;;;6.50;99.90;;;;;;5025376;28;20600;-58
2024/02/24 03:50:57;;;;;;;2.80;0.83;;;6.60;99.90;;;;;;5033282;28;20222;-58
2024/02/24 03:53:23;;;;;;;1.73;0.80;;;6.60;99.90;;;;;;5033356;28;20248;-57
2024/02/24 03:55:50;;;;;;;1.30;0.70;;;6.60;99.90;;;;;;5033463;28;20213;-58
2024/02/24 03:58:17;;;;;;;0.70;0.63;;;6.70;99.90;;;;;;5033318;28;20703;-58
2024/02/24 04:00:44;;;;;;;1.53;0.80;;;6.80;99.90;;;;;;5033176;28;20226;-59
2024/02/24 04:03:11;;;;;;;1.53;1.00;;;6.80;99.90;;;;;;5033017;28;20264;-60
2024/02/24 04:05:39;;;;;;;1.10;0.80;;;6.70;99.90;;;;;;5033093;28;20229;-60
2024/02/24 04:08:06;;;;;;;1.67;0.80;;;6.80;99.90;;;;;;5033021;28;20206;-60
2024/02/24 04:10:32;;;;;;;1.63;0.90;;;6.80;99.90;;;;;;5033114;28;20227;-59
2024/02/24 04:12:59;;;;;;;1.03;0.87;;;6.90;99.90;;;;;;5033286;28;20210;-60
2024/02/24 04:15:26;;;;;;;0.73;0.70;;;6.90;99.90;;;;;;5033097;28;20205;-60
2024/02/24 04:17:53;;;;;;;2.97;0.77;;;6.90;99.90;;;;;;5033107;28;20211;-59
2024/02/24 04:20:20;;;;;;;2.53;0.93;;;6.90;99.90;;;;;;5032668;28;20228;-60
2024/02/24 04:22:48;;;;;;;0.70;0.70;;;6.90;99.90;;;;;;5032771;28;20669;-59
2024/02/24 04:25:14;;;;;;;0.80;0.63;;;6.80;99.90;;;;;;5032885;28;20628;-60
2024/02/24 04:27:41;;;;;;;1.27;0.77;;;6.70;99.90;;;;;;5032891;28;20206;-59
2024/02/24 04:30:08;;;;;;;1.30;0.77;;;6.60;99.90;;;;;;5032592;28;20210;-59
2024/02/24 04:32:35;;;;;;;0.70;0.60;;;6.60;99.90;;;;;;5032323;28;20704;-59
2024/02/24 04:35:03;;;;;;;1.37;0.80;;;6.50;99.90;;;;;;5032582;28;20217;-60
2024/02/24 04:37:30;;;;;;;2.00;0.80;;;6.50;99.90;;;;;;5024760;28;20269;-59
2024/02/24 04:39:58;;;;;;;1.50;0.90;;;6.40;99.90;;;;;;5032856;28;20206;-59
2024/02/24 04:42:24;;;;;;;6.97;3.40;;;6.40;99.90;;;;;;5032263;28;22410;-59
2024/02/24 04:44:51;;;;;;;5.43;1.90;;;6.40;99.90;;;;;;5032741;28;20234;-59
2024/02/24 04:47:22;;;;;;;1.90;1.07;;;6.30;99.90;;;;;;5032877;28;20210;-59
2024/02/24 04:49:48;;;;;;;3.70;0.80;;;6.30;99.90;;;;;;5032473;28;20233;-60
2024/02/24 04:52:15;;;;;;;1.47;0.80;;;6.30;99.90;;;;;;5032139;28;20318;-59
2024/02/24 04:54:42;;;;;;;1.67;0.80;;;6.30;99.90;;;;;;5032357;28;20207;-60
2024/02/24 04:57:10;;;;;;;2.60;1.30;;;6.40;99.90;;;;;;5032375;28;20210;-60
2024/02/24 04:59:36;;;;;;;2.73;0.80;;;6.40;99.90;;;;;;5032390;28;20206;-59
2024/02/24 05:02:03;;;;;;;1.43;0.73;;;6.40;99.90;;;;;;5032316;28;20229;-59
2024/02/24 05:04:30;;;;;;;2.13;1.00;;;6.60;99.90;;;;;;5032245;28;20205;-58
2024/02/24 05:06:57;;;;;;;2.07;1.30;;;6.70;99.90;;;;;;5031803;28;20256;-60
2024/02/24 05:09:24;;;;;;;2.20;1.03;;;6.80;99.90;;;;;;5032130;28;20206;-59
2024/02/24 05:11:50;;;;;;;2.73;0.70;;;6.90;99.90;;;;;;5031803;28;20275;-59
2024/02/24 05:14:19;;;;;;;4.17;1.00;;;6.90;99.90;;;;;;5032047;28;20280;-59
2024/02/24 05:16:46;;;;;;;1.10;1.00;;;7.10;99.90;;;;;;5031979;28;20210;-59
2024/02/24 05:19:13;;;;;;;1.30;0.80;;;7.10;99.90;;;;;;5031950;28;20206;-59
2024/02/24 05:21:39;;;;;;;3.10;0.83;;;7.20;99.90;;;;;;5031819;28;20222;-60
2024/02/24 05:24:07;;;;;;;0.90;0.70;;;7.20;99.90;;;;;;5031781;28;20210;-57
2024/02/24 05:26:33;;;;;;;2.27;1.00;;;7.10;99.90;;;;;;5031963;28;20206;-59
2024/02/24 05:29:00;;;;;;;1.50;0.90;;;7.10;99.90;;;;;;5031835;28;20301;-59
2024/02/24 05:31:28;;;;;;;2.10;1.17;;;7.10;99.90;;;;;;5031351;28;20226;-59
2024/02/24 05:33:55;;;;;;;1.90;1.10;;;7.20;99.90;;;;;;5032034;28;20215;-58
2024/02/24 05:36:21;;;;;;;2.90;1.37;;;7.10;99.90;;;;;;5031873;28;20214;-61
2024/02/24 05:38:48;;;;;;;2.10;1.27;;;7.10;99.90;;;;;;5031591;28;20600;-59
2024/02/24 05:41:15;;;;;;;3.43;1.70;;;7.00;99.90;;;;;;5031133;28;20602;-60
2024/02/24 05:43:41;;;;;;;1.80;1.00;;;7.00;99.90;;;;;;5031783;28;20206;-59
2024/02/24 05:46:08;;;;;;;2.77;1.70;;;7.10;99.90;;;;;;5031691;28;20240;-59
2024/02/24 05:48:37;;;;;;;2.60;1.30;;;7.10;99.90;;;;;;5031565;28;20652;-59
2024/02/24 05:51:09;;;;;;;2.27;1.00;;;7.10;99.90;;;;;;5031510;28;20222;-59
2024/02/24 05:53:36;;;;;;;2.10;1.50;;;7.20;99.90;;;;;;5024113;28;20199;-58
2024/02/24 05:56:02;;;;;;;7.20;4.13;;;7.20;99.90;;;;;;5031660;28;20211;-59
2024/02/24 05:58:29;;;;;;;2.90;1.97;;;7.40;99.90;;;;;;5031463;28;20226;-59
2024/02/24 06:00:57;;;;;;;4.07;1.40;;;7.40;99.90;;;;;;5031366;28;20262;-59
2024/02/24 06:03:25;;;;;;;3.67;1.70;;;7.40;99.90;;;;;;5031460;28;20202;-60
2024/02/24 06:05:53;;;;;;;2.80;1.40;;;7.50;99.90;;;;;;5031508;28;20211;-60
2024/02/24 06:08:20;;;;;;;2.03;0.93;;;7.50;99.90;;;;;;5031311;28;20715;-61
2024/02/24 06:10:47;;;;;;;2.40;1.20;;;7.50;99.90;;;;;;5031209;28;20222;-58
2024/02/24 06:13:14;;;;;;;3.77;2.33;;;7.60;99.90;;;;;;5031564;28;20207;-60
2024/02/24 06:15:41;;;;;;;2.03;1.30;;;7.60;99.90;;;;;;5031695;28;20206;-58
2024/02/24 06:18:08;;;;;;;4.77;2.57;;;7.70;99.90;;;;;;5032383;28;20206;-60
2024/02/24 06:20:35;;;;;;;2.37;1.70;;;7.80;99.90;;;;;;5034910;28;20222;-57
2024/02/24 06:23:03;;;;;;;2.57;1.17;;;7.80;99.90;;;;;;5034913;28;20778;-60
2024/02/24 06:25:30;;;;;;;1.77;1.00;;;7.90;99.90;;;;;;5035071;28;20252;-59
2024/02/24 06:27:58;;;;;;;3.33;1.43;;;7.90;99.90;;;;;;5035158;28;20214;-58
2024/02/24 06:30:24;;;;;;;1.53;1.13;;;8.00;99.90;;;;;;5034790;28;20230;-59
2024/02/24 06:32:51;;;;;;;2.90;1.90;;;7.90;99.90;;;;;;5034785;28;20260;-59
2024/02/24 06:35:18;;;;;;;3.07;1.60;;;8.00;99.90;;;;;;5034798;28;20276;-59
2024/02/24 06:37:45;;;;;;;2.00;1.40;;;8.00;99.90;;;;;;5034706;28;20209;-60
2024/02/24 06:40:13;;;;;;;2.70;1.53;;;7.90;99.90;;;;;;5034491;28;20213;-59
2024/02/24 06:42:40;;;;;;;1.20;1.10;;;7.90;99.90;;;;;;5034426;28;20222;-59
2024/02/24 06:45:07;;;;;;;2.43;1.37;;;8.00;99.90;;;;;;5034622;28;20206;-60
2024/02/24 06:47:34;;;;;;;2.70;1.33;;;8.10;99.90;;;;;;5034559;28;20208;-60
2024/02/24 06:50:00;;;;;;;2.80;1.70;;;8.10;99.90;;;;;;5034721;28;20260;-60
2024/02/24 06:52:27;;;;;;;2.10;1.40;;;8.20;99.90;;;;;;5034031;28;20211;-60
2024/02/24 06:54:54;;;;;;;1.90;1.10;;;8.30;99.90;;;;;;5034340;28;20630;-60
2024/02/24 06:57:22;;;;;;;1.43;1.03;;;8.30;99.90;;;;;;5034396;28;20206;-60
2024/02/24 06:59:49;;;;;;;4.07;1.37;;;8.30;99.90;;;;;;5034430;28;20234;-60
2024/02/24 07:02:16;;;;;;;1.63;1.00;;;8.30;99.90;;;;;;5033560;28;20268;-60
2024/02/24 07:04:43;;;;;;;2.33;1.07;;;8.30;99.90;;;;;;5034264;28;20198;-60
2024/02/24 07:07:10;;;;;;;2.63;1.70;;;8.30;99.90;;;;;;5033933;28;20210;-59
2024/02/24 07:09:36;;;;;;;4.10;2.30;;;8.30;99.90;;;;;;5034278;28;20210;-61
2024/02/24 07:12:03;;;;;;;2.50;1.43;;;8.30;99.90;;;;;;5033620;28;20759;-60
2024/02/24 07:14:33;;;;;;;12.60;9.37;;;8.30;99.90;;;;;;5033895;28;20256;-59
2024/02/24 07:16:59;;;;;;;3.67;2.50;;;8.20;99.90;;;;;;5034171;28;20206;-62
2024/02/24 07:19:26;;;;;;;4.60;3.10;;;8.30;99.90;;;;;;5033702;28;20750;-60
2024/02/24 07:21:53;;;;;;;3.33;1.70;;;8.20;99.90;;;;;;5033244;28;20718;-60
2024/02/24 07:24:20;;;;;;;2.20;1.10;;;8.20;99.90;;;;;;5033963;28;20202;-61
2024/02/24 07:26:46;;;;;;;1.50;0.97;;;8.20;99.90;;;;;;5034007;28;20213;-60
2024/02/24 07:29:13;;;;;;;4.70;2.57;;;8.20;99.90;;;;;;5033268;28;20694;-61
2024/02/24 07:31:41;;;;;;;5.17;3.30;;;8.20;99.90;;;;;;5033427;28;20218;-61
2024/02/24 07:34:08;;;;;;;3.20;1.40;;;8.20;99.90;;;;;;5033653;28;20206;-61
2024/02/24 07:36:35;;;;;;;3.37;1.40;;;8.30;99.90;;;;;;5025288;28;20206;-60
2024/02/24 07:39:01;;;;;;;2.70;1.60;;;8.20;99.90;;;;;;5033649;28;20210;-60
2024/02/24 07:41:28;;;;;;;1.30;0.80;;;8.20;99.90;;;;;;5032993;28;20286;-60
2024/02/24 07:43:55;;;;;;;2.00;0.90;;;8.40;99.90;;;;;;5033659;28;20213;-60
2024/02/24 07:46:27;;;;;;;0.80;0.70;;;8.40;99.90;;;;;;5033394;28;20210;-60
2024/02/24 07:48:57;;;;;;;1.47;1.00;;;8.30;99.90;;;;;;5033218;28;20206;-61
2024/02/24 07:51:23;;;;;;;1.37;0.60;;;8.20;99.90;;;;;;5032696;28;20237;-61
2024/02/24 07:53:50;;;;;;;2.00;0.60;;;8.30;99.90;;;;;;5033242;28;20207;-61
2024/02/24 07:56:17;;;;;;;1.63;1.00;;;8.30;99.90;;;;;;5033200;28;20202;-61
2024/02/24 07:58:43;;;;;;;1.17;0.77;;;8.10;99.90;;;;;;5033254;28;20210;-61
2024/02/24 08:01:10;;;;;;;1.20;0.90;;;8.20;99.90;;;;;;5032864;28;20234;-61
2024/02/24 08:03:37;;;;;;;2.30;1.17;;;8.10;99.90;;;;;;5025098;28;20260;-60
2024/02/24 08:06:05;;;;;;;1.33;0.93;;;8.10;99.90;;;;;;5033102;28;20217;-61
2024/02/24 08:08:33;;;;;;;2.10;1.30;;;8.20;99.90;;;;;;5033069;28;20249;-61
2024/02/24 08:11:00;;;;;;;2.37;1.93;;;8.20;99.90;;;;;;5032881;28;20280;-61
2024/02/24 08:13:27;;;;;;;1.30;0.77;;;8.30;99.90;;;;;;5032963;28;20202;-59
2024/02/24 08:15:54;;;;;;;0.97;0.60;;;8.40;99.90;;;;;;5032985;28;20276;-64
2024/02/24 08:18:22;;;;;;;0.63;0.50;;;8.50;99.90;;;;;;5032545;28;20281;-61
2024/02/24 08:20:49;;;;;;;1.30;0.60;;;8.50;99.90;;;;;;5032334;28;20229;-60
2024/02/24 08:23:17;;;;;;;2.10;1.00;;;8.60;99.90;;;;;;5032559;28;20313;-59
2024/02/24 08:25:43;;;;;;;1.37;0.53;;;8.60;99.90;;;;;;5032782;28;20233;-60
2024/02/24 08:28:10;;;;;;;1.07;0.53;;;8.60;99.90;;;;;;5032580;28;20206;-60
2024/02/24 08:30:37;;;;;;;0.40;0.40;;;8.60;99.90;;;;;;5032230;28;20222;-60
2024/02/24 08:33:03;;;;;;;1.03;0.77;;;8.50;99.90;;;;;;5032481;28;20209;-59
2024/02/24 08:35:30;;;;;;;0.83;0.40;;;8.50;99.90;;;;;;5032408;28;20198;-60
2024/02/24 08:37:57;;;;;;;1.07;0.40;;;8.60;99.90;;;;;;5032469;28;20214;-60
2024/02/24 08:40:26;;;;;;;0.73;0.50;;;8.60;99.90;;;;;;5031504;28;20777;-60
2024/02/24 08:42:53;;;;;;;0.50;0.40;;;8.60;99.90;;;;;;5031766;28;20218;-60
2024/02/24 08:45:19;;;;;;;0.40;0.30;;;8.70;99.90;;;;;;5032023;28;20716;-61
2024/02/24 08:47:46;;;;;;;1.13;0.40;;;8.80;99.90;;;;;;5032264;28;20198;-61
2024/02/24 08:50:13;;;;;;;0.27;0.27;;;9.00;99.90;;;;;;5032178;28;20268;-60
2024/02/24 08:52:39;;;;;;;0.63;0.40;;;9.00;99.90;;;;;;5032067;28;20199;-60
2024/02/24 08:55:06;;;;;;;0.30;0.30;;;9.00;99.90;;;;;;5032041;28;20214;-59
2024/02/24 08:57:34;;;;;;;0.97;0.43;;;9.10;99.90;;;;;;5031727;28;20210;-59
2024/02/24 09:00:01;;;;;;;3.30;2.47;;;9.10;99.90;;;;;;5031969;28;20209;-60
2024/02/24 09:02:28;;;;;;;1.73;1.17;;;9.10;99.90;;;;;;5031786;28;20230;-59
2024/02/24 09:04:54;;;;;;;0.80;0.60;;;9.10;99.90;;;;;;5032154;28;20672;-59
2024/02/24 09:07:22;;;;;;;0.60;0.40;;;9.10;99.90;;;;;;5032109;28;20210;-59
2024/02/24 09:09:48;;;;;;;0.57;0.30;;;9.20;99.90;;;;;;5032108;28;20226;-58
2024/02/24 09:12:15;;;;;;;1.23;0.30;;;9.20;99.90;;;;;;5031776;28;20715;-59
2024/02/24 09:14:43;;;;;;;2.67;0.40;;;9.20;99.90;;;;;;5031758;28;20601;-59
2024/02/24 09:17:10;;;;;;;0.40;0.30;;;9.30;99.90;;;;;;5031957;28;20214;-59
2024/02/24 09:19:36;;;;;;;0.33;0.20;;;9.30;99.90;;;;;;5031561;28;20206;-58
2024/02/24 09:22:03;;;;;;;0.47;0.30;;;9.40;99.90;;;;;;5031241;28;20312;-59
2024/02/24 09:24:30;;;;;;;0.40;0.40;;;9.50;99.90;;;;;;5031768;28;20210;-59
2024/02/24 09:26:57;;;;;;;0.20;0.20;;;9.50;99.90;;;;;;5031631;28;20260;-61
2024/02/24 09:29:23;;;;;;;0.20;0.20;;;9.50;99.90;;;;;;5031857;28;20276;-60
2024/02/24 09:31:51;;;;;;;0.20;0.20;;;9.50;99.90;;;;;;5031431;28;20280;-60
2024/02/24 09:34:18;;;;;;;0.63;0.40;;;9.60;99.90;;;;;;5031535;28;20210;-61
2024/02/24 09:36:45;;;;;;;0.83;0.40;;;9.80;99.90;;;;;;5031907;28;20637;-60
2024/02/24 09:39:13;;;;;;;0.60;0.60;;;9.80;99.90;;;;;;5031460;28;20582;-59
2024/02/24 09:41:40;;;;;;;0.50;0.50;;;9.90;99.90;;;;;;5023136;28;20253;-60
2024/02/24 09:44:07;;;;;;;0.67;0.67;;;9.90;99.90;;;;;;5031642;28;20226;-62
2024/02/24 09:46:35;;;;;;;0.30;0.30;;;10.00;99.90;;;;;;5029032;28;20221;-59
2024/02/24 09:49:04;;;;;;;1.10;0.43;;;10.10;99.90;;;;;;5030970;28;20300;-58
2024/02/24 09:51:33;;;;;;;0.20;0.20;;;10.20;99.90;;;;;;5031119;28;20253;-60
2024/02/24 09:53:59;;;;;;;0.20;0.20;;;10.40;99.90;;;;;;5035217;28;20198;-58
2024/02/24 09:56:28;;;;;;;1.77;0.40;;;10.80;99.90;;;;;;5035478;28;20206;-59
2024/02/24 09:58:56;;;;;;;0.43;0.30;;;11.20;99.90;;;;;;5035550;28;20595;-59
2024/02/24 10:01:23;;;;;;;0.30;0.30;;;11.70;99.90;;;;;;5056266;22;20290;-60
2024/02/24 10:03:50;;;;;;;0.33;0.30;;;12.20;99.90;;;;;;5055009;28;20592;-60
2024/02/24 10:06:18;;;;;;;0.70;0.40;;;12.70;99.90;;;;;;5055038;28;20206;-61
2024/02/24 10:08:45;;;;;;;2.53;0.60;;;13.10;99.90;;;;;;5055150;28;20209;-58
2024/02/24 10:11:13;;;;;;;0.57;0.37;;;13.40;99.90;;;;;;5055271;28;20672;-59
2024/02/24 10:13:40;;;;;;;0.50;0.20;;;13.30;99.90;;;;;;5043464;28;20194;-59
2024/02/24 10:16:07;;;;;;;0.37;0.27;;;13.00;99.90;;;;;;5043914;28;20293;-59
2024/02/24 10:18:34;;;;;;;0.60;0.37;;;13.00;99.90;;;;;;5046971;28;20210;-59
2024/02/24 10:21:01;;;;;;;0.37;0.30;;;12.70;99.90;;;;;;5046876;28;20232;-59
2024/02/24 10:23:29;;;;;;;0.20;0.20;;;12.40;99.90;;;;;;5045111;28;20711;-58
2024/02/24 10:25:57;;;;;;;1.90;0.50;;;12.20;99.90;;;;;;5043289;28;20676;-59
2024/02/24 10:28:25;;;;;;;0.60;0.43;;;12.20;99.90;;;;;;5044648;28;20263;-59
2024/02/24 10:30:52;;;;;;;2.10;1.80;;;12.20;99.90;;;;;;5046363;28;20221;-59
2024/02/24 10:33:19;;;;;;;1.53;0.90;;;12.20;99.90;;;;;;5045878;28;20202;-60
2024/02/24 10:35:49;;;;;;;0.37;0.37;;;12.20;99.90;;;;;;5043136;28;20206;-60
2024/02/24 10:38:17;;;;;;;0.63;0.27;;;12.30;99.90;;;;;;5043102;28;20292;-60
2024/02/24 10:40:48;;;;;;;1.90;1.30;;;12.40;99.90;;;;;;5042452;28;20206;-60
2024/02/24 10:43:15;;;;;;;0.60;0.40;;;12.60;99.90;;;;;;5042872;28;20226;-61
2024/02/24 10:45:42;;;;;;;0.83;0.63;;;12.80;99.90;;;;;;5029465;28;20213;-61
2024/02/24 10:48:09;;;;;;;0.80;0.50;;;13.10;99.90;;;;;;5025305;28;20214;-60
2024/02/24 10:50:35;;;;;;;0.73;0.60;;;13.40;99.90;;;;;;5034279;28;21541;-60
2024/02/24 10:53:04;;;;;;;0.47;0.37;;;13.70;99.90;;;;;;5034586;28;20206;-60
2024/02/24 10:55:32;;;;;;;0.50;0.20;;;13.90;99.90;;;;;;5034136;28;20207;-61
2024/02/24 10:58:01;;;;;;;1.10;0.90;;;14.30;99.40;;;;;;5040520;28;20259;-58
2024/02/24 11:00:30;;;;;;;1.90;1.13;;;14.60;98.90;;;;;;5044559;28;20209;-61
2024/02/24 11:02:58;;;;;;;1.03;0.53;;;15.00;98.00;;;;;;5042556;28;20226;-57
2024/02/24 11:05:25;;;;;;;1.83;1.10;;;15.30;97.10;;;;;;5043705;28;20300;-58
2024/02/24 11:07:52;;;;;;;1.30;0.50;;;15.30;96.60;;;;;;5045926;28;20225;-61
2024/02/24 11:10:20;;;;;;;0.30;0.30;;;15.10;96.60;;;;;;5046021;28;20202;-58
2024/02/24 11:12:48;;;;;;;8.00;0.87;;;14.90;96.60;;;;;;5042385;28;20222;-57
2024/02/24 11:15:21;;;;;;;0.70;0.30;;;14.70;96.90;;;;;;5042446;28;20217;-58
2024/02/24 11:17:50;;;;;;;0.60;0.30;;;14.60;96.10;;;;;;5035172;28;20209;-60
2024/02/24 11:20:54;;;;;;;1.63;0.70;;;14.60;96.80;;;;;;5042268;28;20202;-57
2024/02/24 11:23:22;;;;;;;1.20;0.87;;;14.70;96.70;;;;;;5044982;28;20622;-59
2024/02/24 11:25:50;;;;;;;1.07;0.40;;;15.00;95.70;;;;;;5042210;28;20285;-58
2024/02/24 11:28:20;;;;;;;1.35;0.57;;;15.20;95.20;;;;;;5042660;28;20206;-59
2024/02/24 11:30:51;;;;;;;1.40;0.60;;;15.50;95.20;;;;;;5034574;28;20312;-59
2024/02/24 11:33:24;;;;;;;1.67;1.10;;;15.70;94.90;;;;;;5042584;28;20240;-58
2024/02/24 11:35:51;;;;;;;3.43;1.20;;;15.70;94.80;;;;;;5045574;28;20202;-59
2024/02/24 11:38:18;;;;;;;3.23;1.83;;;15.80;94.40;;;;;;5045358;28;20305;-59
2024/02/24 11:40:47;;;;;;;2.83;1.13;;;15.80;94.20;;;;;;5041755;28;20289;-59
2024/02/24 11:43:14;;;;;;;0.63;0.43;;;15.80;94.30;;;;;;5042152;28;20222;-59
2024/02/24 11:45:46;;;;;;;0.60;0.50;;;15.80;94.00;;;;;;5044953;28;20691;-59
2024/02/24 11:48:14;;;;;;;0.40;0.30;;;15.70;93.60;;;;;;5045432;28;20218;-59
2024/02/24 11:50:41;;;;;;;1.10;0.52;;;15.80;93.40;;;;;;5039029;28;20236;-59
2024/02/24 11:53:08;;;;;;;2.03;1.45;;;15.80;93.30;;;;;;5042257;28;20289;-59
2024/02/24 11:55:35;;;;;;;0.90;0.60;;;15.90;92.90;;;;;;5043852;28;20222;-60
2024/02/24 11:58:07;;;;;;;0.82;0.77;;;16.20;92.50;;;;;;5045219;28;20206;-58
2024/02/24 12:00:34;;;;;;;2.28;0.60;;;16.20;92.10;;;;;;5042779;28;20217;-58
2024/02/24 12:03:01;;;;;;;0.82;0.50;;;16.20;91.30;;;;;;5041170;28;20707;-58
2024/02/24 12:05:29;;;;;;;0.97;0.50;;;16.00;91.50;;;;;;5043043;28;20237;-59
2024/02/24 12:07:56;;;;;;;2.53;1.70;;;15.80;91.30;;;;;;5045096;28;20213;-59
2024/02/24 12:10:23;;;;;;;0.35;0.22;;;15.50;91.20;;;;;;5044333;28;20209;-57
2024/02/24 12:12:50;;;;;;;1.77;0.80;;;15.00;90.10;;;;;;5041190;28;20226;-57
2024/02/24 12:15:17;;;;;;;1.93;1.00;;;14.60;90.10;;;;;;5041323;28;20637;-59
2024/02/24 12:17:45;;;;;;;1.27;0.60;;;14.50;90.50;;;;;;5033400;28;20207;-58
2024/02/24 12:20:12;;;;;;;1.60;0.90;;;14.50;90.20;;;;;;5041593;28;20214;-57
2024/02/24 12:22:42;;;;;;;1.20;0.80;;;14.30;90.70;;;;;;5043843;28;20233;-58
2024/02/24 12:25:15;;;;;;;1.10;0.70;;;14.10;91.40;;;;;;5044679;28;20214;-58
2024/02/24 12:27:42;;;;;;;0.90;0.50;;;13.90;91.90;;;;;;5041537;28;20671;-58
2024/02/24 12:30:10;;;;;;;0.83;0.50;;;13.80;91.90;;;;;;5041054;28;20210;-57
2024/02/24 12:32:36;;;;;;;1.50;0.60;;;13.70;92.30;;;;;;5043031;28;20624;-59
2024/02/24 12:35:04;;;;;;;1.87;0.83;;;13.50;92.60;;;;;;5044516;28;20210;-58
2024/02/24 12:37:33;;;;;;;0.80;0.60;;;13.30;92.40;;;;;;5042782;28;20205;-59
2024/02/24 12:40:01;;;;;;;0.97;0.57;;;13.20;92.60;;;;;;5040877;28;20702;-57
2024/02/24 12:42:28;;;;;;;2.17;0.80;;;13.10;92.50;;;;;;5041712;28;20317;-59
2024/02/24 12:44:55;;;;;;;1.80;1.20;;;13.10;92.50;;;;;;5044055;28;20316;-58
2024/02/24 12:47:21;;;;;;;1.17;0.70;;;13.10;93.20;;;;;;5044010;28;20221;-59
2024/02/24 12:49:48;;;;;;;1.80;0.60;;;13.10;93.30;;;;;;5040706;28;20628;-58
2024/02/24 12:52:15;;;;;;;1.27;0.60;;;13.00;93.40;;;;;;5040155;28;20330;-58
2024/02/24 12:54:41;;;;;;;1.37;0.60;;;13.00;93.40;;;;;;5043567;28;20206;-57